Time;durP1;ratioP1;P1;durP2;ratioP2;P2;SDS_P1;SDS_P2;PMS_P1;PMS_P2;Temp;Humidity;BMP_temperature;BMP_pressure;BME280_temperature;BME280_humidity;BME280_pressure;Samples;Min_cycle;Max_cycle;Signal;HPM_P1;HPM_P2
2023/07/31 00:00:32;;;;;;;1.13;0.70;;;;;21.70;100797.00;;;;5091419;28;20237;-83
2023/07/31 00:02:59;;;;;;;1.48;1.10;;;;;21.70;100790.00;;;;5090791;28;20205;-83
2023/07/31 00:05:27;;;;;;;0.93;0.73;;;;;21.80;100784.00;;;;5091204;28;20213;-83
2023/07/31 00:07:54;;;;;;;1.15;0.80;;;;;21.80;100790.00;;;;5091531;28;20695;-82
2023/07/31 00:10:23;;;;;;;1.73;1.13;;;;;21.80;100784.00;;;;5104367;28;20670;-83
2023/07/31 00:12:50;;;;;;;1.73;1.08;;;;;21.80;100778.00;;;;5110924;28;20569;-83
2023/07/31 00:15:17;;;;;;;1.23;0.75;;;;;21.80;100775.00;;;;5111407;28;20225;-83
2023/07/31 00:17:45;;;;;;;2.38;1.40;;;;;21.80;100765.00;;;;5111770;28;20689;-83
2023/07/31 00:20:12;;;;;;;2.15;1.63;;;;;21.80;100759.00;;;;5111731;28;20198;-83
2023/07/31 00:22:39;;;;;;;3.65;1.40;;;;;21.90;100761.00;;;;5111242;28;20248;-82
2023/07/31 00:25:07;;;;;;;2.50;1.45;;;;;21.90;100754.00;;;;5109110;28;20541;-83
2023/07/31 00:27:36;;;;;;;5.85;1.85;;;;;21.90;100760.00;;;;5101259;28;20202;-83
2023/07/31 00:30:04;;;;;;;5.25;2.30;;;;;21.90;100758.00;;;;5111574;28;20217;-82
2023/07/31 00:32:31;;;;;;;4.18;2.30;;;;;22.00;100760.00;;;;5110218;28;20218;-82
2023/07/31 00:34:58;;;;;;;3.67;2.38;;;;;22.00;100759.00;;;;5110593;28;20204;-82
2023/07/31 00:37:25;;;;;;;5.35;2.45;;;;;22.00;100763.00;;;;5110836;28;20216;-82
2023/07/31 00:39:53;;;;;;;8.05;3.00;;;;;22.10;100760.00;;;;5110633;28;20208;-82
2023/07/31 00:42:20;;;;;;;7.70;3.53;;;;;22.10;100756.00;;;;5106284;28;20678;-83
2023/07/31 00:44:48;;;;;;;10.15;3.30;;;;;22.10;100755.00;;;;5090107;28;20193;-82
2023/07/31 00:47:16;;;;;;;9.45;3.38;;;;;22.20;100753.00;;;;5090497;28;20186;-82
2023/07/31 00:49:44;;;;;;;11.63;4.03;;;;;22.20;100759.00;;;;5090061;28;20206;-83
2023/07/31 00:52:11;;;;;;;9.70;3.55;;;;;22.30;100757.00;;;;5090620;28;20222;-83
2023/07/31 00:54:39;;;;;;;8.13;3.45;;;;;22.30;100758.00;;;;5090448;28;20202;-82
2023/07/31 00:57:08;;;;;;;7.28;2.90;;;;;22.30;100750.00;;;;5090379;28;20209;-82
2023/07/31 00:59:35;;;;;;;7.20;3.45;;;;;22.40;100753.00;;;;5090401;28;20206;-84
2023/07/31 01:02:04;;;;;;;10.38;4.15;;;;;22.40;100745.00;;;;5090186;28;20209;-82
2023/07/31 01:04:32;;;;;;;6.85;3.13;;;;;22.50;100756.00;;;;5089337;28;20194;-83
2023/07/31 01:07:05;;;;;;;11.18;3.88;;;;;22.40;100756.00;;;;5089868;28;20201;-83
2023/07/31 01:09:41;;;;;;;8.18;3.63;;;;;22.50;100758.00;;;;5104594;28;20231;-83
2023/07/31 01:12:10;;;;;;;9.75;3.83;;;;;22.50;100747.00;;;;5109879;28;20694;-82
2023/07/31 01:14:37;;;;;;;8.20;4.38;;;;;22.50;100740.00;;;;5109018;28;20232;-83
2023/07/31 01:17:06;;;;;;;9.38;3.58;;;;;22.50;100743.00;;;;5109827;28;20216;-82
2023/07/31 01:19:33;;;;;;;10.98;3.60;;;;;22.60;100741.00;;;;5110301;28;20267;-82
2023/07/31 01:22:23;;;;;;;8.52;3.58;;;;;22.50;100748.00;;;;5110281;28;20212;-85
2023/07/31 01:24:59;;;;;;;8.43;3.45;;;;;22.50;100749.00;;;;5110469;28;20204;-84
2023/07/31 01:27:35;;;;;;;13.85;3.80;;;;;22.50;100747.00;;;;5109075;28;20209;-83
2023/07/31 01:30:10;;;;;;;6.57;3.13;;;;;22.50;100743.00;;;;5109950;28;20682;-84
2023/07/31 01:32:39;;;;;;;9.52;3.90;;;;;22.60;100745.00;;;;5110131;28;20552;-83
2023/07/31 01:35:08;;;;;;;14.45;3.70;;;;;22.60;100742.00;;;;5090968;28;20205;-84
2023/07/31 01:37:35;;;;;;;7.95;3.15;;;;;22.60;100746.00;;;;5089049;28;20202;-84
2023/07/31 01:40:03;;;;;;;7.53;3.60;;;;;22.60;100747.00;;;;5089440;28;20210;-84
2023/07/31 01:42:31;;;;;;;12.48;4.53;;;;;22.60;100744.00;;;;5088384;28;20199;-84
2023/07/31 01:44:59;;;;;;;10.98;3.25;;;;;22.60;100753.00;;;;5088900;28;20213;-83
2023/07/31 01:47:26;;;;;;;7.68;3.25;;;;;22.60;100748.00;;;;5088843;28;20205;-83
2023/07/31 01:49:53;;;;;;;11.35;4.13;;;;;22.60;100750.00;;;;5089606;28;20202;-82
2023/07/31 01:52:21;;;;;;;9.82;3.63;;;;;22.60;100744.00;;;;5089222;28;20234;-83
2023/07/31 01:54:48;;;;;;;10.38;3.38;;;;;22.60;100741.00;;;;5106152;28;20255;-83
2023/07/31 01:57:15;;;;;;;5.22;2.15;;;;;22.60;100744.00;;;;5109397;28;20677;-82
2023/07/31 01:59:44;;;;;;;6.20;3.35;;;;;22.60;100746.00;;;;5096355;28;20687;-84
2023/07/31 02:02:11;;;;;;;6.07;2.53;;;;;22.60;100750.00;;;;5088888;28;20234;-83
2023/07/31 02:04:39;;;;;;;6.20;2.60;;;;;22.60;100739.00;;;;5088832;28;20651;-84
2023/07/31 02:07:07;;;;;;;7.85;2.33;;;;;22.60;100732.00;;;;5088517;28;20202;-86
2023/07/31 02:09:34;;;;;;;5.03;2.17;;;;;22.60;100729.00;;;;5103376;28;20213;-83
2023/07/31 02:12:01;;;;;;;3.63;1.67;;;;;22.60;100722.00;;;;5109034;28;20229;-83
2023/07/31 02:14:28;;;;;;;5.07;2.20;;;;;22.60;100718.00;;;;5109130;28;20651;-83
2023/07/31 02:16:57;;;;;;;5.45;1.77;;;;;22.50;100716.00;;;;5109516;28;20209;-83
2023/07/31 02:19:24;;;;;;;3.00;1.58;;;;;22.60;100715.00;;;;5108369;28;20205;-83
2023/07/31 02:21:52;;;;;;;6.75;2.35;;;;;22.60;100706.00;;;;5109100;28;20231;-82
2023/07/31 02:24:19;;;;;;;4.80;2.20;;;;;22.60;100698.00;;;;5105141;28;20210;-83
2023/07/31 02:26:46;;;;;;;5.05;2.28;;;;;22.60;100699.00;;;;5092281;28;20201;-83
2023/07/31 02:29:13;;;;;;;5.90;2.20;;;;;22.60;100693.00;;;;5108789;28;20201;-82
2023/07/31 02:31:40;;;;;;;4.88;2.58;;;;;22.60;100692.00;;;;5108167;28;20240;-82
2023/07/31 02:34:09;;;;;;;6.47;2.13;;;;;22.60;100688.00;;;;5108982;28;20667;-82
2023/07/31 02:36:36;;;;;;;4.20;2.45;;;;;22.60;100695.00;;;;5108579;28;20205;-82
2023/07/31 02:39:04;;;;;;;4.00;2.13;;;;;22.60;100687.00;;;;5108409;28;20213;-82
2023/07/31 02:41:31;;;;;;;3.83;1.80;;;;;22.60;100679.00;;;;5102567;28;20209;-81
2023/07/31 02:43:58;;;;;;;6.90;3.15;;;;;22.60;100685.00;;;;5088642;28;20198;-81
2023/07/31 02:46:25;;;;;;;9.35;3.83;;;;;22.60;100685.00;;;;5088240;28;20233;-81
2023/07/31 02:48:53;;;;;;;9.70;3.28;;;;;22.60;100686.00;;;;5088128;28;20202;-81
2023/07/31 02:51:21;;;;;;;8.52;2.60;;;;;22.60;100687.00;;;;5087777;28;20201;-81
2023/07/31 02:53:49;;;;;;;7.75;3.30;;;;;22.60;100683.00;;;;5087954;28;20249;-82
2023/07/31 02:56:16;;;;;;;6.18;2.92;;;;;22.60;100684.00;;;;5088590;28;20210;-81
2023/07/31 02:58:44;;;;;;;10.25;3.35;;;;;22.60;100686.00;;;;5087572;28;20698;-81
2023/07/31 03:01:11;;;;;;;8.20;3.60;;;;;22.60;100677.00;;;;5088195;28;20214;-81
2023/07/31 03:03:38;;;;;;;6.90;3.80;;;;;22.60;100676.00;;;;5088142;28;20202;-81
2023/07/31 03:06:05;;;;;;;11.65;3.60;;;;;22.60;100679.00;;;;5088309;28;20198;-81
2023/07/31 03:08:34;;;;;;;10.27;4.28;;;;;22.60;100681.00;;;;5102644;28;20205;-82
2023/07/31 03:11:01;;;;;;;11.80;4.75;;;;;22.60;100680.00;;;;5108286;28;20225;-81
2023/07/31 03:13:28;;;;;;;10.82;3.58;;;;;22.60;100686.00;;;;5107598;28;20225;-81
2023/07/31 03:15:56;;;;;;;7.75;3.50;;;;;22.50;100682.00;;;;5107333;28;20233;-82
2023/07/31 03:18:23;;;;;;;12.43;4.57;;;;;22.50;100673.00;;;;5107933;28;20194;-83
2023/07/31 03:20:50;;;;;;;11.63;4.20;;;;;22.50;100679.00;;;;5107839;28;20212;-80
2023/07/31 03:23:17;;;;;;;9.75;3.65;;;;;22.50;100674.00;;;;5108557;28;20205;-80
2023/07/31 03:25:58;;;;;;;7.82;3.60;;;;;22.40;100665.00;;;;5107300;28;20202;-80
2023/07/31 03:28:26;;;;;;;6.78;3.15;;;;;22.50;100669.00;;;;5107048;28;20201;-80
2023/07/31 03:30:53;;;;;;;10.05;4.22;;;;;22.50;100657.00;;;;5108405;28;20202;-80
2023/07/31 03:33:21;;;;;;;7.38;3.42;;;;;22.50;100668.00;;;;5094936;28;20226;-80
2023/07/31 03:35:48;;;;;;;7.50;3.42;;;;;22.50;100660.00;;;;5087498;28;20191;-82
2023/07/31 03:38:15;;;;;;;8.18;4.30;;;;;22.50;100669.00;;;;5088011;28;21025;-81
2023/07/31 03:40:43;;;;;;;7.35;3.35;;;;;22.50;100668.00;;;;5087342;28;20594;-80
2023/07/31 03:43:11;;;;;;;9.90;3.30;;;;;22.50;100664.00;;;;5087839;28;20668;-81
2023/07/31 03:45:39;;;;;;;8.85;3.72;;;;;22.50;100665.00;;;;5086827;28;20229;-81
2023/07/31 03:48:07;;;;;;;9.10;3.95;;;;;22.50;100667.00;;;;5088008;28;20210;-81
2023/07/31 03:50:34;;;;;;;7.18;3.65;;;;;22.50;100662.00;;;;5088109;28;20216;-80
2023/07/31 03:53:02;;;;;;;6.75;3.60;;;;;22.50;100656.00;;;;5087797;28;20225;-81
2023/07/31 03:55:29;;;;;;;7.13;3.40;;;;;22.40;100660.00;;;;5087402;28;20194;-81
2023/07/31 03:57:56;;;;;;;6.63;3.25;;;;;22.40;100649.00;;;;5086847;28;20198;-80
2023/07/31 04:00:25;;;;;;;10.48;3.78;;;;;22.40;100655.00;;;;5086932;28;20678;-82
2023/07/31 04:02:52;;;;;;;7.63;4.10;;;;;22.40;100655.00;;;;5087583;28;20561;-80
2023/07/31 04:05:20;;;;;;;7.22;3.80;;;;;22.40;100652.00;;;;5087970;28;20205;-82
2023/07/31 04:07:47;;;;;;;9.73;3.40;;;;;22.40;100645.00;;;;5099518;28;20209;-81
2023/07/31 04:10:14;;;;;;;7.43;3.78;;;;;22.40;100635.00;;;;5111196;28;20777;-82
2023/07/31 04:12:42;;;;;;;11.23;4.25;;;;;22.40;100639.00;;;;5111556;28;20225;-80
2023/07/31 04:15:10;;;;;;;8.05;3.50;;;;;22.40;100639.00;;;;5111452;28;20221;-81
2023/07/31 04:17:38;;;;;;;7.78;3.50;;;;;22.40;100641.00;;;;5111198;28;20210;-81
2023/07/31 04:20:06;;;;;;;6.45;3.15;;;;;22.40;100628.00;;;;5111473;28;20236;-83
2023/07/31 04:22:34;;;;;;;7.68;3.60;;;;;22.40;100619.00;;;;5110700;28;20205;-81
2023/07/31 04:25:01;;;;;;;6.72;3.17;;;;;22.40;100621.00;;;;5110702;28;20213;-81
2023/07/31 04:27:28;;;;;;;5.85;3.28;;;;;22.40;100621.00;;;;5110768;28;20205;-81
2023/07/31 04:29:55;;;;;;;6.55;3.03;;;;;22.40;100626.00;;;;5111048;28;20205;-80
2023/07/31 04:32:23;;;;;;;10.05;4.80;;;;;22.40;100623.00;;;;5110288;28;20224;-80
2023/07/31 04:34:51;;;;;;;9.13;3.50;;;;;22.40;100619.00;;;;5111346;28;20198;-82
2023/07/31 04:37:18;;;;;;;6.72;3.20;;;;;22.40;100622.00;;;;5111500;28;20205;-81
2023/07/31 04:39:46;;;;;;;8.80;3.30;;;;;22.40;100621.00;;;;5110753;28;20659;-81
2023/07/31 04:42:13;;;;;;;9.68;3.63;;;;;22.40;100615.00;;;;5090920;28;20209;-81
2023/07/31 04:44:40;;;;;;;6.97;3.38;;;;;22.40;100620.00;;;;5090452;28;20202;-81
2023/07/31 04:47:08;;;;;;;5.88;2.95;;;;;22.40;100619.00;;;;5090219;28;20703;-82
2023/07/31 04:49:35;;;;;;;7.40;3.55;;;;;22.40;100618.00;;;;5090603;28;20194;-82
2023/07/31 04:52:04;;;;;;;8.13;2.97;;;;;22.30;100615.00;;;;5089636;28;20197;-80
2023/07/31 04:54:31;;;;;;;8.38;3.50;;;;;22.30;100615.00;;;;5090492;28;20194;-80
2023/07/31 04:56:59;;;;;;;6.00;2.72;;;;;22.30;100603.00;;;;5090800;28;20663;-81
2023/07/31 04:59:26;;;;;;;9.77;3.42;;;;;22.30;100607.00;;;;5109924;28;20228;-80
2023/07/31 05:01:53;;;;;;;8.38;3.47;;;;;22.30;100612.00;;;;5110180;28;20228;-82
2023/07/31 05:04:20;;;;;;;8.05;3.03;;;;;22.30;100598.00;;;;5110969;28;20623;-80
2023/07/31 05:06:47;;;;;;;7.60;2.67;;;;;22.30;100601.00;;;;5110158;28;21184;-80
2023/07/31 05:09:16;;;;;;;5.55;2.90;;;;;22.30;100595.00;;;;5110935;28;20201;-81
2023/07/31 05:11:43;;;;;;;5.65;2.60;;;;;22.30;100604.00;;;;5109426;28;20221;-80
2023/07/31 05:14:11;;;;;;;7.78;2.67;;;;;22.30;100600.00;;;;5109428;28;20362;-81
2023/07/31 05:16:38;;;;;;;6.93;3.42;;;;;22.30;100597.00;;;;5110528;28;20581;-81
2023/07/31 05:19:05;;;;;;;8.95;2.60;;;;;22.30;100602.00;;;;5110193;28;20569;-81
2023/07/31 05:21:32;;;;;;;4.85;2.70;;;;;22.30;100600.00;;;;5109542;28;20206;-82
2023/07/31 05:23:59;;;;;;;8.18;2.95;;;;;22.30;100589.00;;;;5109893;28;20202;-82
2023/07/31 05:26:28;;;;;;;5.20;2.47;;;;;22.20;100592.00;;;;5109941;28;20198;-82
2023/07/31 05:28:55;;;;;;;5.10;2.50;;;;;22.30;100592.00;;;;5109857;28;20678;-82
2023/07/31 05:31:24;;;;;;;5.75;2.55;;;;;22.20;100591.00;;;;5104344;28;20194;-82
2023/07/31 05:33:51;;;;;;;4.18;2.03;;;;;22.20;100598.00;;;;5089687;28;20224;-83
2023/07/31 05:36:19;;;;;;;4.57;2.00;;;;;22.20;100587.00;;;;5089667;28;20194;-83
2023/07/31 05:38:46;;;;;;;5.30;2.22;;;;;22.20;100579.00;;;;5089565;28;20206;-82
2023/07/31 05:41:14;;;;;;;3.80;2.15;;;;;22.20;100579.00;;;;5089693;28;20216;-82
2023/07/31 05:43:42;;;;;;;5.63;2.38;;;;;22.20;100570.00;;;;5089385;28;20398;-83
2023/07/31 05:46:11;;;;;;;5.80;3.05;;;;;22.20;100570.00;;;;5089042;28;20626;-83
2023/07/31 05:48:39;;;;;;;6.55;2.45;;;;;22.20;100561.00;;;;5090288;28;20581;-82
2023/07/31 05:51:07;;;;;;;4.45;2.70;;;;;22.20;100555.00;;;;5089674;28;20190;-82
2023/07/31 05:53:35;;;;;;;4.57;2.63;;;;;22.20;100555.00;;;;5088783;28;20233;-82
2023/07/31 05:56:03;;;;;;;3.67;2.33;;;;;22.20;100551.00;;;;5088956;28;20663;-82
2023/07/31 05:58:30;;;;;;;4.65;2.28;;;;;22.20;100554.00;;;;5089293;28;20194;-83
2023/07/31 06:00:59;;;;;;;5.43;2.70;;;;;22.10;100546.00;;;;5089274;28;20227;-83
2023/07/31 06:03:26;;;;;;;6.22;2.75;;;;;22.10;100550.00;;;;5089127;28;20217;-83
2023/07/31 06:05:53;;;;;;;5.88;2.33;;;;;22.10;100537.00;;;;5090608;28;20202;-82
2023/07/31 06:08:20;;;;;;;5.22;2.72;;;;;22.10;100538.00;;;;5109446;28;20573;-82
2023/07/31 06:10:48;;;;;;;6.18;2.50;;;;;22.10;100542.00;;;;5109399;28;20255;-83
2023/07/31 06:13:15;;;;;;;6.55;3.13;;;;;22.10;100540.00;;;;5109139;28;20250;-82
2023/07/31 06:15:42;;;;;;;4.80;2.55;;;;;22.10;100534.00;;;;5109038;28;20253;-82
2023/07/31 06:18:11;;;;;;;4.30;2.20;;;;;22.10;100534.00;;;;5108924;28;20209;-82
2023/07/31 06:20:40;;;;;;;2.72;1.73;;;;;22.10;100537.00;;;;5108608;28;20216;-82
2023/07/31 06:23:07;;;;;;;4.68;2.53;;;;;22.10;100534.00;;;;5108510;28;20237;-83
2023/07/31 06:25:34;;;;;;;3.55;2.38;;;;;22.10;100535.00;;;;5108560;28;20202;-82
2023/07/31 06:28:02;;;;;;;3.70;1.88;;;;;22.10;100527.00;;;;5108682;28;20197;-82
2023/07/31 06:30:29;;;;;;;2.78;1.50;;;;;22.10;100528.00;;;;5107384;28;20201;-82
2023/07/31 06:32:56;;;;;;;4.43;2.25;;;;;22.10;100526.00;;;;5108709;28;20213;-83
2023/07/31 06:35:25;;;;;;;4.32;2.30;;;;;22.10;100523.00;;;;5108444;28;20205;-82
2023/07/31 06:37:52;;;;;;;3.35;1.38;;;;;22.10;100517.00;;;;5108504;28;20208;-82
2023/07/31 06:40:20;;;;;;;3.10;1.95;;;;;22.10;100518.00;;;;5096074;28;20719;-82
2023/07/31 06:42:47;;;;;;;5.35;1.90;;;;;22.10;100503.00;;;;5088043;28;20228;-83
2023/07/31 06:45:14;;;;;;;1.67;1.20;;;;;22.10;100517.00;;;;5088012;28;20202;-82
2023/07/31 06:47:41;;;;;;;3.53;2.03;;;;;22.10;100508.00;;;;5088183;28;20560;-83
2023/07/31 06:50:09;;;;;;;3.53;1.65;;;;;22.10;100495.00;;;;5087868;28;20548;-82
2023/07/31 06:52:38;;;;;;;2.88;1.70;;;;;22.10;100497.00;;;;5088018;28;20194;-82
2023/07/31 06:55:18;;;;;;;4.57;2.35;;;;;22.00;100491.00;;;;5088171;28;20198;-83
2023/07/31 06:57:45;;;;;;;2.88;1.45;;;;;22.10;100496.00;;;;5088449;28;20244;-82
2023/07/31 07:00:13;;;;;;;2.88;1.52;;;;;22.10;100489.00;;;;5088290;28;20194;-82
2023/07/31 07:02:41;;;;;;;3.65;1.58;;;;;22.20;100484.00;;;;5088126;28;20759;-81
2023/07/31 07:05:09;;;;;;;1.90;1.50;;;;;22.20;100490.00;;;;5091546;28;20193;-82
2023/07/31 07:07:38;;;;;;;3.15;1.65;;;;;22.20;100496.00;;;;5107414;28;20202;-82
2023/07/31 07:10:06;;;;;;;2.92;2.08;;;;;22.20;100489.00;;;;5108609;28;20201;-83
2023/07/31 07:12:33;;;;;;;1.80;1.60;;;;;22.20;100490.00;;;;5107933;28;20221;-82
2023/07/31 07:15:00;;;;;;;3.05;2.08;;;;;22.30;100477.00;;;;5107167;28;20314;-82
2023/07/31 07:17:31;;;;;;;2.00;1.50;;;;;22.30;100483.00;;;;5108248;28;20202;-82
2023/07/31 07:19:58;;;;;;;2.97;2.15;;;;;22.30;100485.00;;;;5107524;28;20204;-82
2023/07/31 07:22:26;;;;;;;2.63;1.70;;;;;22.40;100480.00;;;;5108447;28;20202;-82
2023/07/31 07:24:55;;;;;;;3.67;2.00;;;;;22.40;100481.00;;;;5108730;28;20198;-81
2023/07/31 07:27:23;;;;;;;2.70;1.95;;;;;22.40;100483.00;;;;5107039;28;20212;-82
2023/07/31 07:29:52;;;;;;;2.72;1.65;;;;;22.40;100482.00;;;;5108147;28;20197;-82
2023/07/31 07:32:20;;;;;;;2.40;1.90;;;;;22.40;100484.00;;;;5087668;28;20285;-81
2023/07/31 07:34:48;;;;;;;3.45;2.40;;;;;22.40;100487.00;;;;5087669;28;20226;-82
2023/07/31 07:37:15;;;;;;;2.80;1.73;;;;;22.50;100483.00;;;;5087750;28;20210;-82
2023/07/31 07:39:43;;;;;;;3.50;2.03;;;;;22.50;100486.00;;;;5087694;28;20702;-82
2023/07/31 07:42:11;;;;;;;2.80;2.05;;;;;22.50;100487.00;;;;5091727;28;20202;-81
2023/07/31 07:44:38;;;;;;;1.77;1.63;;;;;22.50;100478.00;;;;5090785;28;20209;-82
2023/07/31 07:47:06;;;;;;;2.45;1.73;;;;;22.50;100480.00;;;;5091232;28;20213;-81
2023/07/31 07:49:35;;;;;;;3.80;1.80;;;;;22.60;100481.00;;;;5091482;28;20679;-81
2023/07/31 07:52:02;;;;;;;2.40;1.25;;;;;22.60;100483.00;;;;5091716;28;20198;-81
2023/07/31 07:54:29;;;;;;;1.77;1.27;;;;;22.60;100477.00;;;;5091186;28;20222;-81
2023/07/31 07:56:57;;;;;;;1.50;1.35;;;;;22.60;100478.00;;;;5091441;28;20221;-82
2023/07/31 07:59:26;;;;;;;1.83;1.15;;;;;22.70;100474.00;;;;5091125;28;20328;-82
2023/07/31 08:01:53;;;;;;;1.58;1.30;;;;;22.70;100481.00;;;;5091010;28;20203;-82
2023/07/31 08:04:20;;;;;;;1.98;1.50;;;;;22.70;100478.00;;;;5092208;28;20199;-83
2023/07/31 08:06:47;;;;;;;2.92;1.88;;;;;22.70;100476.00;;;;5108311;28;20185;-82
2023/07/31 08:09:15;;;;;;;2.92;1.52;;;;;22.70;100467.00;;;;5111941;28;20210;-82
2023/07/31 08:11:42;;;;;;;1.25;1.15;;;;;22.80;100467.00;;;;5111131;28;20778;-81
2023/07/31 08:14:09;;;;;;;1.77;1.40;;;;;22.80;100469.00;;;;5111062;28;20244;-82
2023/07/31 08:16:38;;;;;;;1.95;1.20;;;;;22.80;100470.00;;;;5110680;28;20201;-82
2023/07/31 08:19:05;;;;;;;1.40;1.30;;;;;22.80;100476.00;;;;5111789;28;20212;-82
2023/07/31 08:21:33;;;;;;;1.83;1.58;;;;;22.80;100465.00;;;;5105240;28;20210;-81
2023/07/31 08:24:00;;;;;;;2.28;1.73;;;;;22.90;100466.00;;;;5091117;28;20225;-82
2023/07/31 08:26:27;;;;;;;1.70;1.20;;;;;22.90;100454.00;;;;5090292;28;20206;-81
2023/07/31 08:28:55;;;;;;;2.05;1.25;;;;;22.90;100459.00;;;;5107345;28;20309;-81
2023/07/31 08:31:22;;;;;;;1.33;1.15;;;;;22.90;100453.00;;;;5111344;28;20725;-81
2023/07/31 08:33:50;;;;;;;1.83;1.20;;;;;23.00;100451.00;;;;5111223;28;20228;-82
2023/07/31 08:36:18;;;;;;;1.05;0.95;;;;;23.00;100460.00;;;;5110970;28;20197;-82
2023/07/31 08:38:47;;;;;;;1.80;1.10;;;;;23.00;100449.00;;;;5102385;28;20213;-82
2023/07/31 08:41:16;;;;;;;1.27;1.17;;;;;23.00;100451.00;;;;5090683;28;20214;-82
2023/07/31 08:43:44;;;;;;;1.25;0.80;;;;;23.00;100457.00;;;;5090202;28;20289;-82
2023/07/31 08:46:13;;;;;;;1.10;1.00;;;;;23.10;100451.00;;;;5090815;28;20198;-82
2023/07/31 08:48:42;;;;;;;1.58;1.35;;;;;23.10;100445.00;;;;5090316;28;20418;-82
2023/07/31 08:51:11;;;;;;;1.80;1.20;;;;;23.10;100456.00;;;;5090147;28;20198;-81
2023/07/31 08:53:38;;;;;;;3.95;1.65;;;;;23.10;100449.00;;;;5088947;28;20233;-82
2023/07/31 08:56:07;;;;;;;1.58;1.30;;;;;23.10;100448.00;;;;5091181;28;20205;-82
2023/07/31 08:58:35;;;;;;;1.75;1.65;;;;;23.20;100446.00;;;;5090238;28;20203;-82
2023/07/31 09:01:05;;;;;;;1.77;1.30;;;;;23.10;100448.00;;;;5090244;28;20206;-81
2023/07/31 09:03:35;;;;;;;1.42;1.30;;;;;23.10;100452.00;;;;5089399;28;20211;-81
2023/07/31 09:06:06;;;;;;;1.60;1.50;;;;;23.20;100444.00;;;;5108816;28;20201;-82
2023/07/31 09:08:34;;;;;;;1.70;1.35;;;;;23.20;100460.00;;;;5110638;28;20200;-81
2023/07/31 09:11:03;;;;;;;1.67;1.20;;;;;23.20;100454.00;;;;5110318;28;20217;-81
2023/07/31 09:13:32;;;;;;;1.58;1.48;;;;;23.20;100464.00;;;;5109285;28;20300;-81
2023/07/31 09:15:59;;;;;;;1.83;1.20;;;;;23.20;100452.00;;;;5109532;28;20240;-82
2023/07/31 09:18:27;;;;;;;1.40;1.30;;;;;23.20;100453.00;;;;5109823;28;20284;-82
2023/07/31 09:21:04;;;;;;;1.45;1.35;;;;;23.20;100453.00;;;;5110356;28;20213;-82
2023/07/31 09:23:48;;;;;;;2.85;1.52;;;;;23.10;100432.00;;;;5110576;28;20185;-81
2023/07/31 09:26:31;;;;;;;2.42;1.55;;;;;23.10;100437.00;;;;5107022;28;20205;-81
2023/07/31 09:28:58;;;;;;;1.73;1.23;;;;;23.20;100441.00;;;;5107563;28;20214;-81
2023/07/31 09:31:34;;;;;;;3.05;1.90;;;;;23.20;100441.00;;;;5093092;28;20201;-81
2023/07/31 09:34:01;;;;;;;2.70;1.67;;;;;23.30;100434.00;;;;5110213;28;20282;-81
2023/07/31 09:36:31;;;;;;;3.53;1.40;;;;;23.30;100430.00;;;;5109380;28;20215;-81
2023/07/31 09:39:03;;;;;;;3.22;1.50;;;;;23.30;100431.00;;;;5109794;28;20201;-81
2023/07/31 09:41:31;;;;;;;1.48;1.38;;;;;23.30;100436.00;;;;5109647;28;20205;-81
2023/07/31 09:43:58;;;;;;;2.00;1.58;;;;;23.40;100432.00;;;;5109436;28;20209;-81
2023/07/31 09:46:28;;;;;;;3.85;1.48;;;;;23.40;100426.00;;;;5105006;28;20209;-81
2023/07/31 09:49:08;;;;;;;1.67;1.30;;;;;23.40;100428.00;;;;5089462;28;20678;-81
2023/07/31 09:51:38;;;;;;;1.52;1.33;;;;;23.50;100429.00;;;;5088825;28;20255;-80
2023/07/31 09:54:11;;;;;;;2.20;1.70;;;;;23.50;100433.00;;;;5089446;28;20437;-81
2023/07/31 09:56:42;;;;;;;2.33;1.55;;;;;23.50;100420.00;;;;5089283;28;20206;-81
2023/07/31 09:59:12;;;;;;;1.52;1.08;;;;;23.50;100437.00;;;;5089317;28;20230;-81
2023/07/31 10:01:40;;;;;;;2.13;1.13;;;;;23.60;100422.00;;;;5089205;28;20202;-81
2023/07/31 10:04:09;;;;;;;1.55;1.45;;;;;23.60;100428.00;;;;5091108;28;20676;-81
2023/07/31 10:06:38;;;;;;;1.85;1.67;;;;;23.60;100425.00;;;;5108345;28;20698;-81
2023/07/31 10:09:09;;;;;;;3.67;2.10;;;;;23.60;100419.00;;;;5108976;28;20247;-83
2023/07/31 10:11:43;;;;;;;6.88;2.38;;;;;23.60;100423.00;;;;5109004;28;20218;-81
2023/07/31 10:14:11;;;;;;;4.75;1.92;;;;;23.60;100420.00;;;;5108842;28;20684;-81
2023/07/31 10:16:40;;;;;;;2.60;2.10;;;;;23.60;100422.00;;;;5108030;28;20212;-81
2023/07/31 10:19:09;;;;;;;5.10;2.30;;;;;23.70;100427.00;;;;5109104;28;20201;-80
2023/07/31 10:21:37;;;;;;;3.13;2.03;;;;;23.70;100427.00;;;;5093896;28;20257;-81
2023/07/31 10:24:06;;;;;;;2.75;1.95;;;;;23.70;100431.00;;;;5088670;28;20198;-82
2023/07/31 10:26:36;;;;;;;4.47;2.22;;;;;23.70;100432.00;;;;5088522;28;20209;-81
2023/07/31 10:29:04;;;;;;;3.20;2.50;;;;;23.70;100433.00;;;;5104804;28;20198;-79
2023/07/31 10:31:32;;;;;;;3.47;2.33;;;;;23.80;100430.00;;;;5108082;28;20581;-82
2023/07/31 10:34:02;;;;;;;3.08;2.03;;;;;23.80;100423.00;;;;5108812;28;20440;-82
2023/07/31 10:36:30;;;;;;;4.70;2.22;;;;;23.80;100420.00;;;;5108693;28;20622;-81
2023/07/31 10:38:57;;;;;;;3.00;2.22;;;;;23.80;100426.00;;;;5089994;28;20682;-81
2023/07/31 10:41:32;;;;;;;3.80;2.45;;;;;23.80;100417.00;;;;5088391;28;20289;-81
2023/07/31 10:44:00;;;;;;;4.47;2.17;;;;;23.90;100420.00;;;;5087553;28;20205;-82
2023/07/31 10:46:29;;;;;;;2.83;2.20;;;;;23.90;100417.00;;;;5087981;28;20205;-82
2023/07/31 10:49:01;;;;;;;2.85;2.30;;;;;23.90;100427.00;;;;5088172;28;20194;-80
2023/07/31 10:51:35;;;;;;;3.28;2.13;;;;;23.90;100428.00;;;;5087791;28;20656;-80
2023/07/31 10:54:14;;;;;;;2.10;1.85;;;;;23.90;100425.00;;;;5088058;28;20247;-81
2023/07/31 10:56:46;;;;;;;4.28;1.80;;;;;23.90;100422.00;;;;5087798;28;20984;-81
2023/07/31 10:59:17;;;;;;;2.10;1.90;;;;;24.00;100428.00;;;;5087764;28;20292;-81
2023/07/31 11:01:54;;;;;;;4.40;1.50;;;;;23.90;100413.00;;;;5088304;28;20569;-83
2023/07/31 11:04:26;;;;;;;1.70;1.60;;;;;24.00;100421.00;;;;5100624;28;20593;-81
2023/07/31 11:06:58;;;;;;;1.88;1.30;;;;;24.00;100416.00;;;;5108493;28;20197;-82
2023/07/31 11:09:28;;;;;;;1.50;1.27;;;;;24.10;100430.00;;;;5108591;28;20201;-82
2023/07/31 11:11:57;;;;;;;1.83;1.40;;;;;24.00;100422.00;;;;5106989;28;20221;-83
2023/07/31 11:14:24;;;;;;;3.75;1.60;;;;;24.10;100418.00;;;;5107554;28;20667;-82
2023/07/31 11:16:52;;;;;;;1.90;1.10;;;;;24.10;100425.00;;;;5114088;28;20212;-82
2023/07/31 11:19:23;;;;;;;1.73;1.63;;;;;24.00;100430.00;;;;5114464;28;20197;-83
2023/07/31 11:21:51;;;;;;;1.27;1.17;;;;;24.10;100425.00;;;;5114911;28;20572;-81
2023/07/31 11:24:18;;;;;;;3.05;1.80;;;;;24.10;100424.00;;;;5114927;28;20208;-82
2023/07/31 11:26:51;;;;;;;2.92;1.95;;;;;24.00;100414.00;;;;5114945;28;20601;-81
2023/07/31 11:29:19;;;;;;;2.28;1.73;;;;;24.00;100413.00;;;;5101878;28;20197;-82
2023/07/31 11:31:49;;;;;;;2.80;1.65;;;;;24.00;100412.00;;;;5093983;28;20216;-83
2023/07/31 11:34:17;;;;;;;1.92;1.65;;;;;24.10;100414.00;;;;5094392;28;20266;-81
2023/07/31 11:36:54;;;;;;;2.90;1.88;;;;;24.00;100412.00;;;;5104931;28;20209;-82
2023/07/31 11:39:21;;;;;;;1.98;1.60;;;;;24.10;100403.00;;;;5115146;28;20201;-82
2023/07/31 11:41:49;;;;;;;3.72;2.10;;;;;24.10;100402.00;;;;5114494;28;20198;-82
2023/07/31 11:44:16;;;;;;;2.10;1.90;;;;;24.10;100408.00;;;;5114922;28;20209;-82
2023/07/31 11:46:45;;;;;;;3.00;1.98;;;;;24.10;100408.00;;;;5097961;28;20240;-82
2023/07/31 11:49:12;;;;;;;2.35;1.95;;;;;24.10;100410.00;;;;5094705;28;20202;-83
2023/07/31 11:51:40;;;;;;;1.80;1.48;;;;;24.10;100409.00;;;;5094698;28;20202;-83
2023/07/31 11:54:07;;;;;;;2.80;2.03;;;;;24.10;100409.00;;;;5094582;28;20212;-82
2023/07/31 11:56:35;;;;;;;1.75;1.63;;;;;24.10;100401.00;;;;5094392;28;20213;-82
2023/07/31 11:59:05;;;;;;;2.20;1.83;;;;;24.20;100416.00;;;;5094024;28;20197;-82
2023/07/31 12:01:32;;;;;;;2.05;1.70;;;;;24.10;100405.00;;;;5093603;28;20660;-81
2023/07/31 12:04:02;;;;;;;1.40;1.17;;;;;24.20;100412.00;;;;5094836;28;20214;-81
2023/07/31 12:06:35;;;;;;;2.33;1.50;;;;;24.10;100411.00;;;;5093762;28;20210;-82
2023/07/31 12:09:04;;;;;;;2.00;1.38;;;;;24.20;100418.00;;;;5093625;28;20676;-82
2023/07/31 12:11:31;;;;;;;1.20;1.05;;;;;24.20;100415.00;;;;5093685;28;20218;-82
2023/07/31 12:13:59;;;;;;;2.30;1.40;;;;;24.20;100411.00;;;;5093694;28;20213;-82